Jolon, California
Current Conditions -  °F | °C
As of 10:53 PM on Thursday 18 Dec 2014 (Local Time) from KPRB Reporting Station
Clear Clear  
Wind Chill: 46°   Ceiling: Unl
Heat Index: 46°   Visibility: 10mi
Dew Point: 43°   Wind: 3mph
Humidity: 89%   Direction: 200°SSW
Pressure: 30.23"   Gusts: NA
Location:  35.97°N, 121.18°W
Report Text: KPRB 190653Z AUTO 20003KT 10SM CLR 08/06 A3023 RMK AO2 SLP237 T00780061 TSNO
Loading
Personal Weather Stations






























Interactive Weather Map New forecast layout! Learn more

10-Day Weather Forecast

Advertisements
Track Severe Weather on mobile